Latest Weather Observations for Adelaide (Kent Town)

IDS60901

Issued at 7:51 pm CDT Tuesday 24 October 2017 (issued every 10 minutes, with the page automatically refreshed every 10 minutes)

About weather observations | Map of Adelaide area stations | Latest observations for Adelaide area | Other Formats
Station Details ID: 023090 Name: KENT TOWN Lat: -34.92 Lon: 138.62 Height: 48.0 m
Data from the previous 72 hours. | See also: Recent months at Adelaide (Kent Town)
Date/Time
CDT
Temp
°C
App
Temp
°C
Dew
Point
°C
Rel
Hum
%
Delta-T
°C
Wind Press
QNH
hPa
Press
MSL
hPa
Rain since
9am
mm
Dir  Spd
km/h
Gust
km/h
Spd
kts
Gust
kts
24/07:30pm 19.5 18.8 11.5 60 4.4 E 6 9 3 5 1010.9 1010.8 5.4
24/07:00pm 19.7 19.1 11.8 60 4.4 ESE 6 11 3 6 1011.0 1010.9 5.4
24/06:30pm 19.9 19.4 12.6 63 4.1 ENE 7 11 4 6 1011.1 1011.0 5.4
24/06:00pm 20.3 19.9 12.5 61 4.4 ENE 6 15 3 8 1011.2 1011.1 5.4
24/05:30pm 20.2 19.8 14.0 67 3.6 ENE 9 17 5 9 1011.5 1011.4 5.4
24/05:00pm 18.9 18.6 14.4 75 2.6 E 9 17 5 9 1012.1 1012.0 5.4
24/04:30pm 17.1 18.3 14.9 87 1.3 ENE 2 9 1 5 1013.1 1013.0 5.2
24/04:00pm 17.0 17.3 14.9 87 1.2 E 7 17 4 9 1013.8 1013.7 4.8
24/03:30pm 17.8 18.6 14.9 83 1.7 ENE 4 7 2 4 1015.3 1015.3 3.0
24/03:00pm 18.1 19.4 15.2 83 1.7 ENE 2 7 1 4 1015.2 1015.2 2.0
24/02:30pm 18.5 18.7 14.2 76 2.5 WNW 6 11 3 6 1015.9 1015.9 1.6
24/02:00pm 19.4 17.9 12.0 62 4.1 NNW 11 19 6 10 1015.5 1015.5 0.6
24/01:30pm 23.9 19.4 4.0 27 9.8 NNW 17 26 9 14 1014.7 1014.6 0.0
24/01:00pm 24.9 21.4 3.6 25 10.5 NNW 11 20 6 11 1014.3 1014.2 0.0
24/12:30pm 25.2 22.3 4.8 27 10.3 NNW 9 17 5 9 1014.2 1014.1 0.0
24/12:00pm 25.6 22.5 3.5 24 10.9 NW 9 15 5 8 1014.3 1014.2 0.0
24/11:30am 26.4 23.7 5.4 26 10.8 NNE 9 19 5 10 1014.0 1013.9 0.0
24/11:00am 25.6 22.9 5.5 27 10.3 NNE 9 19 5 10 1013.9 1013.8 0.0
24/10:30am 24.8 22.4 6.8 31 9.4 NE 9 15 5 8 1013.8 1013.7 0.0
24/10:00am 24.2 21.6 6.1 31 9.3 NNE 9 17 5 9 1013.9 1013.8 0.0
24/09:30am 24.1 21.8 5.9 31 9.3 NE 7 15 4 8 1013.9 1013.8 0.0
24/09:00am 23.2 21.2 7.3 36 8.3 NE 7 15 4 8 1014.3 1014.2 0.0
24/08:30am 21.4 21.6 10.4 49 6.0 CALM 0 0 0 0 1014.7 1014.6 0.0
24/08:00am 18.3 18.9 11.8 66 3.6 CALM 0 0 0 0 1014.9 1014.8 0.0
24/07:30am 17.4 16.9 10.9 65 3.5 NNE 4 9 2 5 1014.6 1014.5 0.0
24/07:00am 15.8 16.4 11.9 77 2.1 CALM 0 0 0 0 1014.4 1014.3 0.0
24/06:30am 16.0 15.4 11.6 75 2.4 SE 6 11 3 6 1014.7 1014.6 0.0
24/06:00am 16.8 16.4 11.0 68 3.1 S 4 13 2 7 1015.0 1015.0 0.0
24/05:30am 15.8 16.1 10.9 72 2.6 CALM 0 0 0 0 1014.2 1014.1 0.0
24/05:00am 15.4 15.6 10.7 73 2.5 CALM 0 6 0 3 1013.9 1013.8 0.0
24/04:30am 15.2 15.4 10.7 74 2.4 CALM 0 0 0 0 1013.8 1013.7 0.0
24/04:00am 14.6 14.9 11.0 79 1.9 CALM 0 0 0 0 1013.9 1013.8 0.0
24/03:30am 15.2 15.6 11.3 77 2.1 CALM 0 0 0 0 1013.8 1013.7 0.0
24/03:00am 16.1 16.5 11.1 72 2.7 CALM 0 0 0 0 1014.1 1014.0 0.0
24/02:30am 16.8 17.3 11.7 72 2.8 CALM 0 0 0 0 1014.5 1014.4 0.0
24/02:00am 17.5 17.8 11.0 65 3.5 CALM 0 0 0 0 1014.7 1014.6 0.0
24/01:30am 17.7 18.0 10.8 64 3.7 CALM 0 0 0 0 1015.2 1015.2 0.0
24/01:00am 17.7 17.1 10.4 62 3.9 ENE 4 7 2 4 1015.3 1015.3 0.0
24/12:30am 17.5 17.8 10.8 65 3.6 CALM 0 0 0 0 1015.8 1015.8 0.0
24/12:00am 17.1 17.5 11.4 69 3.1 CALM 0 4 0 2 1016.2 1016.2 0.0
 
Date/Time
CDT
Temp
°C
App
Temp
°C
Dew
Point
°C
Rel
Hum
%
Delta-T
°C
Wind Press
QNH
hPa
Press
MSL
hPa
Rain since
9am
mm
Dir  Spd
km/h
Gust
km/h
Spd
kts
Gust
kts
23/11:30pm 17.4 17.9 11.5 68 3.2 CALM 0 0 0 0 1016.4 1016.4 0.0
23/11:00pm 17.7 18.2 11.5 67 3.4 CALM 0 0 0 0 1016.4 1016.4 0.0
23/10:30pm 17.9 17.8 12.1 69 3.2 E 4 7 2 4 1016.6 1016.6 0.0
23/10:00pm 18.2 18.8 12.0 67 3.4 CALM 0 0 0 0 1016.7 1016.7 0.0
23/09:30pm 18.8 19.1 12.1 65 3.7 ESE 2 9 1 5 1016.4 1016.4 0.0
23/09:00pm 18.8 19.8 13.3 70 3.1 CALM 0 0 0 0 1016.5 1016.5 0.0
23/08:30pm 19.1 19.3 12.9 67 3.5 SSE 4 9 2 5 1016.3 1016.3 0.0
23/08:00pm 19.9 20.8 13.0 64 3.9 CALM 0 0 0 0 1016.2 1016.2 0.0
23/07:30pm 21.1 20.3 11.1 52 5.5 W 6 7 3 4 1016.0 1016.0 0.0
23/07:00pm 21.6 20.9 10.2 48 6.2 NNW 4 6 2 3 1015.9 1015.9 0.0
23/06:30pm 22.1 22.2 10.2 46 6.5 CALM 0 0 0 0 1015.9 1015.9 0.0
23/06:00pm 22.4 21.1 9.9 45 6.8 WSW 7 9 4 5 1016.0 1016.0 0.0
23/05:30pm 21.8 21.0 9.8 46 6.5 S 4 7 2 4 1015.7 1015.7 0.0
23/05:00pm 22.1 20.7 9.7 45 6.7 SW 7 11 4 6 1016.1 1016.1 0.0
23/04:30pm 22.2 19.9 8.9 42 7.1 SW 11 17 6 9 1016.4 1016.4 0.0
23/04:00pm 23.1 20.1 9.2 41 7.5 WSW 15 20 8 11 1016.6 1016.6 0.0
23/03:30pm 24.0 21.3 9.0 38 8.1 WSW 13 20 7 11 1016.8 1016.8 0.0
23/03:00pm 24.4 21.7 8.8 37 8.4 SW 13 20 7 11 1017.2 1017.2 0.0
23/02:30pm 24.0 21.3 10.2 41 7.6 SW 15 20 8 11 1017.5 1017.5 0.0
23/02:00pm 22.7 21.0 9.8 44 7.0 SW 9 19 5 10 1017.5 1017.5 0.0
23/01:30pm 23.5 21.1 10.2 43 7.3 W 13 20 7 11 1017.9 1017.9 0.0
23/01:00pm 22.3 20.7 8.8 42 7.2 NW 7 15 4 8 1018.1 1018.1 0.0
23/12:30pm 21.8 19.8 8.5 42 7.0 NNW 9 13 5 7 1018.3 1018.3 0.0
23/12:00pm 20.3 18.3 8.7 47 6.1 N 9 17 5 9 1018.8 1018.8 0.0
23/11:30am 19.9 18.4 9.1 49 5.7 W 7 13 4 7 1019.3 1019.3 0.0
23/11:00am 19.1 17.6 9.0 52 5.3 N 7 17 4 9 1019.6 1019.6 0.0
23/10:30am 17.5 16.0 9.0 57 4.4 NNE 7 11 4 6 1019.8 1019.8 0.0
23/10:00am 16.7 15.2 9.2 61 3.9 NE 7 13 4 7 1020.3 1020.2 0.0
23/09:30am 16.2 15.3 9.2 63 3.6 NNE 4 7 2 4 1020.6 1020.5 0.0
23/09:00am 14.9 13.9 9.0 68 3.0 N 4 11 2 6 1020.8 1020.7 0.0
23/08:30am 14.5 14.0 9.4 71 2.6 NW 2 7 1 4 1020.8 1020.7 0.0
23/08:00am 13.0 12.4 9.0 77 2.0 NE 2 9 1 5 1020.5 1020.4 0.0
23/07:30am 11.7 10.8 9.1 84 1.3 NW 4 7 2 4 1020.6 1020.5 0.0
23/07:00am 10.1 9.7 8.2 88 0.9 CALM 0 0 0 0 1020.0 1020.0 0.0
23/06:30am 9.9 9.5 8.2 89 0.8 CALM 0 0 0 0 1020.2 1020.1 0.0
23/06:00am 10.2 9.9 8.6 90 0.8 CALM 0 0 0 0 1020.0 1020.0 0.0
23/05:30am 10.5 9.1 8.7 89 0.9 ENE 6 7 3 4 1019.9 1019.9 0.0
23/05:00am 10.7 10.1 9.1 90 0.8 E 2 7 1 4 1020.2 1020.1 0.0
23/04:30am 11.0 10.8 9.2 89 0.9 CALM 0 4 0 2 1019.9 1019.9 0.0
23/04:00am 11.2 11.0 9.2 87 1.0 CALM 0 0 0 0 1019.8 1019.8 0.0
23/03:30am 11.5 11.3 9.1 85 1.2 CALM 0 0 0 0 1019.8 1019.8 0.0
23/03:00am 11.8 10.9 9.4 85 1.2 WSW 4 7 2 4 1020.2 1020.1 0.0
23/02:30am 12.6 11.4 9.7 82 1.5 SSE 6 9 3 5 1020.5 1020.4 0.0
23/02:00am 13.4 11.3 9.7 78 1.9 SSW 11 17 6 9 1021.1 1021.0 0.0
23/01:30am 13.6 12.1 9.3 75 2.2 SSW 7 11 4 6 1021.6 1021.5 0.0
23/01:00am 13.6 12.0 8.6 72 2.5 SSE 7 11 4 6 1021.9 1021.8 0.0
23/12:30am 13.5 11.5 8.5 72 2.5 SSE 9 19 5 10 1022.1 1022.0 0.0
23/12:00am 13.4 11.8 8.6 73 2.4 SSE 7 15 4 8 1022.1 1022.0 0.0
 
Date/Time
CDT
Temp
°C
App
Temp
°C
Dew
Point
°C
Rel
Hum
%
Delta-T
°C
Wind Press
QNH
hPa
Press
MSL
hPa
Rain since
9am
mm
Dir  Spd
km/h
Gust
km/h
Spd
kts
Gust
kts
22/11:30pm 13.2 11.6 8.6 73 2.3 SSW 7 13 4 7 1022.1 1022.0 0.0
22/11:00pm 13.2 11.1 8.1 71 2.5 S 9 19 5 10 1022.2 1022.1 0.0
22/10:30pm 13.4 11.7 8.2 71 2.6 SSE 7 11 4 6 1022.2 1022.1 0.0
22/10:00pm 13.7 11.5 7.8 67 2.9 S 9 13 5 7 1022.3 1022.2 0.0
22/09:30pm 14.2 12.1 8.2 67 3.0 S 9 13 5 7 1022.2 1022.1 0.0
22/09:00pm 14.6 12.9 8.4 66 3.1 SSW 7 13 4 7 1022.0 1021.9 0.0
22/08:30pm 15.0 13.0 8.7 66 3.2 SSW 9 17 5 9 1022.1 1022.0 0.0
22/08:00pm 15.3 12.1 8.6 64 3.4 SSW 15 20 8 11 1022.0 1021.9 0.0
22/07:30pm 15.6 12.9 8.9 64 3.4 SW 13 22 7 12 1021.9 1021.8 0.0
22/07:00pm 15.8 12.3 8.7 62 3.6 SSW 17 28 9 15 1021.7 1021.6 0.0
22/06:30pm 16.3 13.4 9.6 64 3.5 SW 15 24 8 13 1021.3 1021.2 0.0
22/06:00pm 17.0 13.9 10.4 65 3.5 SW 17 30 9 16 1021.4 1021.3 0.0
22/05:30pm 17.0 13.6 10.6 66 3.4 WSW 19 26 10 14 1021.4 1021.3 0.0
22/05:00pm 16.7 13.7 10.5 67 3.3 SW 17 26 9 14 1021.2 1021.1 0.0
22/04:30pm 17.1 13.6 10.3 64 3.6 SW 19 32 10 17 1021.2 1021.1 0.0
22/04:00pm 17.4 13.8 10.7 65 3.6 SW 20 33 11 18 1021.3 1021.2 0.0
22/03:30pm 18.3 15.2 10.2 59 4.3 SW 17 30 9 16 1021.3 1021.2 0.0
22/03:00pm 18.9 15.1 9.9 56 4.8 SW 20 30 11 16 1021.5 1021.4 0.0
22/02:30pm 18.7 15.8 9.8 56 4.7 SW 15 26 8 14 1021.9 1021.8 0.0
22/02:00pm 17.4 14.1 9.6 60 4.1 SW 17 24 9 13 1022.4 1022.3 0.0
22/01:30pm 16.8 13.4 9.3 61 3.9 SW 17 26 9 14 1022.8 1022.7 0.0
22/01:00pm 16.6 14.2 10.1 65 3.4 SW 13 22 7 12 1023.0 1022.9 0.0
22/12:30pm 16.1 13.5 10.6 70 2.9 SW 15 22 8 12 1023.3 1023.2 0.0
22/12:00pm 16.5 14.5 10.2 66 3.3 WSW 11 20 6 11 1023.5 1023.4 0.0
22/11:30am 16.3 14.4 10.4 68 3.1 SW 11 22 6 12 1023.8 1023.7 0.0
22/11:00am 15.3 12.7 9.3 67 3.1 SW 13 20 7 11 1023.9 1023.8 0.0
22/10:30am 15.5 12.7 8.6 63 3.5 SW 13 26 7 14 1024.0 1023.9 0.0
22/10:00am 15.4 12.5 8.0 61 3.7 SSW 13 20 7 11 1023.9 1023.8 0.0
22/09:30am 14.7 12.2 8.1 64 3.3 SW 11 17 6 9 1024.2 1024.1 0.0
22/09:00am 15.3 12.3 7.9 61 3.7 SW 13 19 7 10 1024.1 1024.0 0.0
22/08:30am 14.1 10.9 6.9 62 3.5 SW 13 22 7 12 1024.0 1023.9 0.0
22/08:00am 13.2 11.4 7.2 67 2.9 SSW 6 11 3 6 1024.0 1023.9 0.0
22/07:30am 12.9 11.0 7.6 70 2.6 SSW 7 11 4 6 1023.7 1023.6 0.0
22/07:00am 12.2 10.5 7.7 74 2.2 SSW 6 11 3 6 1023.6 1023.5 0.0
22/06:30am 11.9 10.3 7.8 76 2.0 S 6 9 3 5 1023.6 1023.5 0.0
22/06:00am 11.8 10.2 7.9 77 1.9 SSW 6 9 3 5 1023.4 1023.3 0.0
22/05:30am 11.5 10.7 8.2 80 1.6 SSW 2 7 1 4 1023.4 1023.3 0.0
22/05:00am 11.3 9.7 8.2 81 1.5 SSW 6 9 3 5 1023.4 1023.3 0.0
22/04:30am 11.4 9.3 8.1 80 1.6 SSE 9 17 5 9 1023.5 1023.4 0.0
22/04:00am 11.8 9.6 7.9 77 1.9 SSW 9 13 5 7 1023.7 1023.6 0.0
22/03:30am 11.4 9.6 8.1 80 1.6 SSW 7 11 4 6 1023.9 1023.8 0.0
22/03:00am 11.1 9.3 8.0 81 1.5 SSW 7 11 4 6 1024.2 1024.1 0.0
22/02:30am 10.9 9.7 8.0 82 1.4 SSW 4 7 2 4 1024.3 1024.2 0.0
22/02:00am 11.5 9.7 8.0 79 1.7 SSW 7 11 4 6 1024.8 1024.7 0.0
22/01:30am 11.5 9.7 7.8 78 1.8 S 7 13 4 7 1025.1 1025.0 0.0
22/01:00am 12.0 9.8 7.7 75 2.1 SSW 9 15 5 8 1025.6 1025.5 0.0
22/12:30am 11.9 9.7 7.8 76 2.0 SSW 9 15 5 8 1025.8 1025.7 0.0
22/12:00am 12.2 9.6 7.7 74 2.2 SSW 11 17 6 9 1025.9 1025.8 0.0
 
Date/Time
CDT
Temp
°C
App
Temp
°C
Dew
Point
°C
Rel
Hum
%
Delta-T
°C
Wind Press
QNH
hPa
Press
MSL
hPa
Rain since
9am
mm
Dir  Spd
km/h
Gust
km/h
Spd
kts
Gust
kts
21/11:30pm 12.1 9.6 8.0 76 2.0 SSW 11 17 6 9 1026.1 1026.0 0.0
21/11:00pm 12.3 10.3 8.5 77 1.9 SSW 9 17 5 9 1026.3 1026.2 0.0
21/10:30pm 12.6 10.0 7.7 72 2.4 SSW 11 20 6 11 1026.5 1026.4 0.0
21/10:00pm 13.4 10.2 6.7 64 3.2 SSW 13 24 7 13 1026.6 1026.5 0.0
21/09:30pm 13.5 10.5 6.1 61 3.5 SSW 11 17 6 9 1026.7 1026.6 0.0
21/09:00pm 13.7 10.8 6.4 61 3.5 S 11 20 6 11 1026.7 1026.6 0.0
21/08:30pm 13.7 9.9 5.6 58 3.8 S 15 22 8 12 1026.7 1026.6 0.0
21/08:00pm 14.0 10.6 5.7 57 3.9 S 13 26 7 14 1026.7 1026.6 0.0

Latest Capital City Observations: Canberra | Sydney | Melbourne | Brisbane | Adelaide | Perth | Hobart | Darwin

Other Formats:

Comma delimited format used in spreadsheet applications
http://www.bom.gov.au/fwo/IDS60901/IDS60901.94675.axf

JavaScript Object Notation format (JSON) in row-major order
http://www.bom.gov.au/fwo/IDS60901/IDS60901.94675.json